sensor_id;sensor_type;location;lat;lon;timestamp;P1;durP1;ratioP1;P2;durP2;ratioP2
61570;SDS011;47463;49.884;10.010;2023-12-07T00:00:00;29.8;;;14.1;;
61570;SDS011;47463;49.884;10.010;2023-12-07T00:05:00;27;;;13.1;;
61570;SDS011;47463;49.884;10.010;2023-12-07T00:10:00;22.7;;;12.3;;
61570;SDS011;47463;49.884;10.010;2023-12-07T00:15:00;25.5;;;12.2;;
61570;SDS011;47463;49.884;10.010;2023-12-07T00:20:00;25.5;;;12.2;;
61570;SDS011;47463;49.884;10.010;2023-12-07T00:25:00;25.9;;;12;;
61570;SDS011;47463;49.884;10.010;2023-12-07T00:30:00;24.6;;;12.5;;
61570;SDS011;47463;49.884;10.010;2023-12-07T00:35:00;20.6;;;11.2;;
61570;SDS011;47463;49.884;10.010;2023-12-07T00:40:00;22.5;;;11.1;;
61570;SDS011;47463;49.884;10.010;2023-12-07T00:45:00;21.8;;;11.6;;
61570;SDS011;47463;49.884;10.010;2023-12-07T00:50:00;21.8;;;11.6;;
61570;SDS011;47463;49.884;10.010;2023-12-07T00:55:00;24.9;;;12.4;;
61570;SDS011;47463;49.884;10.010;2023-12-07T01:00:00;27.4;;;13.2;;
61570;SDS011;47463;49.884;10.010;2023-12-07T01:05:00;26.7;;;13.1;;
61570;SDS011;47463;49.884;10.010;2023-12-07T01:10:00;26.9;;;13.8;;
61570;SDS011;47463;49.884;10.010;2023-12-07T01:15:00;30;;;14;;
61570;SDS011;47463;49.884;10.010;2023-12-07T01:20:00;30;;;14;;
61570;SDS011;47463;49.884;10.010;2023-12-07T01:25:00;25.6;;;13.8;;
61570;SDS011;47463;49.884;10.010;2023-12-07T01:30:00;30.9;;;14.7;;
61570;SDS011;47463;49.884;10.010;2023-12-07T01:35:00;28.2;;;13.5;;
61570;SDS011;47463;49.884;10.010;2023-12-07T01:40:00;29.3;;;13.8;;
61570;SDS011;47463;49.884;10.010;2023-12-07T01:45:00;25;;;12.9;;
61570;SDS011;47463;49.884;10.010;2023-12-07T01:50:00;25;;;12.9;;
61570;SDS011;47463;49.884;10.010;2023-12-07T01:55:00;31;;;14.1;;
61570;SDS011;47463;49.884;10.010;2023-12-07T02:00:00;29.6;;;15.2;;
61570;SDS011;47463;49.884;10.010;2023-12-07T02:05:00;29.2;;;14.6;;
61570;SDS011;47463;49.884;10.010;2023-12-07T02:10:00;30.2;;;14.4;;
61570;SDS011;47463;49.884;10.010;2023-12-07T02:15:00;31.6;;;15.8;;
61570;SDS011;47463;49.884;10.010;2023-12-07T02:20:01;31.6;;;15.8;;
61570;SDS011;47463;49.884;10.010;2023-12-07T02:25:04;30.1;;;15.2;;
61570;SDS011;47463;49.884;10.010;2023-12-07T02:30:00;31.5;;;15;;
61570;SDS011;47463;49.884;10.010;2023-12-07T02:35:00;37;;;16.1;;
61570;SDS011;47463;49.884;10.010;2023-12-07T02:40:00;39;;;16.1;;
61570;SDS011;47463;49.884;10.010;2023-12-07T02:45:00;33.9;;;15.2;;
61570;SDS011;47463;49.884;10.010;2023-12-07T02:50:00;33.9;;;15.2;;
61570;SDS011;47463;49.884;10.010;2023-12-07T02:55:00;28.7;;;14.5;;
61570;SDS011;47463;49.884;10.010;2023-12-07T03:00:00;34.1;;;16.7;;
61570;SDS011;47463;49.884;10.010;2023-12-07T03:05:00;33;;;14.9;;
61570;SDS011;47463;49.884;10.010;2023-12-07T03:10:00;33.8;;;15.7;;
61570;SDS011;47463;49.884;10.010;2023-12-07T03:15:00;36.3;;;16.7;;
61570;SDS011;47463;49.884;10.010;2023-12-07T03:20:00;36.3;;;16.7;;
61570;SDS011;47463;49.884;10.010;2023-12-07T03:25:00;34.5;;;15.5;;
61570;SDS011;47463;49.884;10.010;2023-12-07T03:30:00;37.7;;;16.1;;
61570;SDS011;47463;49.884;10.010;2023-12-07T03:35:00;39.7;;;16.2;;
61570;SDS011;47463;49.884;10.010;2023-12-07T03:40:00;41.1;;;16.4;;
61570;SDS011;47463;49.884;10.010;2023-12-07T03:45:00;36.6;;;16.5;;
61570;SDS011;47463;49.884;10.010;2023-12-07T03:50:00;36.6;;;16.5;;
61570;SDS011;47463;49.884;10.010;2023-12-07T03:55:00;39.2;;;16.3;;
61570;SDS011;47463;49.884;10.010;2023-12-07T04:00:00;37.5;;;17.4;;
61570;SDS011;47463;49.884;10.010;2023-12-07T04:05:00;45.3;;;17.2;;
61570;SDS011;47463;49.884;10.010;2023-12-07T04:10:00;40.1;;;18;;
61570;SDS011;47463;49.884;10.010;2023-12-07T04:15:00;41.2;;;16.5;;
61570;SDS011;47463;49.884;10.010;2023-12-07T04:20:00;41.2;;;16.5;;
61570;SDS011;47463;49.884;10.010;2023-12-07T04:25:00;37.2;;;16;;
61570;SDS011;47463;49.884;10.010;2023-12-07T04:30:00;38.3;;;16.8;;
61570;SDS011;47463;49.884;10.010;2023-12-07T04:35:00;37.1;;;15.7;;
61570;SDS011;47463;49.884;10.010;2023-12-07T04:40:00;33.9;;;15.7;;
61570;SDS011;47463;49.884;10.010;2023-12-07T04:45:00;38.5;;;17.7;;
61570;SDS011;47463;49.884;10.010;2023-12-07T04:50:00;38.5;;;17.7;;
61570;SDS011;47463;49.884;10.010;2023-12-07T04:55:00;41.2;;;16.4;;
61570;SDS011;47463;49.884;10.010;2023-12-07T05:00:00;37.4;;;17;;
61570;SDS011;47463;49.884;10.010;2023-12-07T05:05:00;37.6;;;16.4;;
61570;SDS011;47463;49.884;10.010;2023-12-07T05:10:00;45.6;;;19.4;;
61570;SDS011;47463;49.884;10.010;2023-12-07T05:15:00;41.5;;;18;;
61570;SDS011;47463;49.884;10.010;2023-12-07T05:20:00;41.5;;;18;;
61570;SDS011;47463;49.884;10.010;2023-12-07T05:25:00;41.6;;;17.7;;
61570;SDS011;47463;49.884;10.010;2023-12-07T05:30:00;41.6;;;16.8;;
61570;SDS011;47463;49.884;10.010;2023-12-07T05:35:00;41.1;;;18.6;;
61570;SDS011;47463;49.884;10.010;2023-12-07T05:40:00;47.7;;;18.8;;
61570;SDS011;47463;49.884;10.010;2023-12-07T05:45:00;43;;;18.3;;
61570;SDS011;47463;49.884;10.010;2023-12-07T05:50:00;43;;;18.3;;
61570;SDS011;47463;49.884;10.010;2023-12-07T05:55:00;40.3;;;17.3;;
61570;SDS011;47463;49.884;10.010;2023-12-07T06:00:00;46.5;;;18.1;;
61570;SDS011;47463;49.884;10.010;2023-12-07T06:05:00;38.3;;;16.7;;
61570;SDS011;47463;49.884;10.010;2023-12-07T06:10:00;37.8;;;17.8;;
61570;SDS011;47463;49.884;10.010;2023-12-07T06:15:00;39.5;;;18.6;;
61570;SDS011;47463;49.884;10.010;2023-12-07T06:20:00;39.5;;;18.6;;
61570;SDS011;47463;49.884;10.010;2023-12-07T06:25:00;43;;;18.3;;
61570;SDS011;47463;49.884;10.010;2023-12-07T06:30:00;40.6;;;18.1;;
61570;SDS011;47463;49.884;10.010;2023-12-07T06:35:00;48.5;;;18.4;;
61570;SDS011;47463;49.884;10.010;2023-12-07T06:40:00;44;;;18.1;;
61570;SDS011;47463;49.884;10.010;2023-12-07T06:45:00;41.3;;;17;;
61570;SDS011;47463;49.884;10.010;2023-12-07T06:50:00;41.3;;;17;;
61570;SDS011;47463;49.884;10.010;2023-12-07T06:55:00;44.1;;;17;;
61570;SDS011;47463;49.884;10.010;2023-12-07T07:00:00;44.1;;;18.1;;
61570;SDS011;47463;49.884;10.010;2023-12-07T07:05:00;41.6;;;17.4;;
61570;SDS011;47463;49.884;10.010;2023-12-07T07:10:00;42.3;;;17.3;;
61570;SDS011;47463;49.884;10.010;2023-12-07T07:15:00;36.7;;;17;;
61570;SDS011;47463;49.884;10.010;2023-12-07T07:20:00;36.7;;;17;;
61570;SDS011;47463;49.884;10.010;2023-12-07T07:25:00;50.1;;;19.4;;
61570;SDS011;47463;49.884;10.010;2023-12-07T07:30:00;36.5;;;15.9;;
61570;SDS011;47463;49.884;10.010;2023-12-07T07:35:00;42;;;16.1;;
61570;SDS011;47463;49.884;10.010;2023-12-07T07:40:00;41.4;;;17.3;;
61570;SDS011;47463;49.884;10.010;2023-12-07T07:45:00;40.5;;;17.5;;
61570;SDS011;47463;49.884;10.010;2023-12-07T07:50:00;40.5;;;17.5;;
61570;SDS011;47463;49.884;10.010;2023-12-07T07:55:00;40.4;;;17.4;;
61570;SDS011;47463;49.884;10.010;2023-12-07T08:00:00;65.8;;;20.7;;
61570;SDS011;47463;49.884;10.010;2023-12-07T08:05:00;53;;;20.4;;
61570;SDS011;47463;49.884;10.010;2023-12-07T08:10:00;55;;;21.4;;
61570;SDS011;47463;49.884;10.010;2023-12-07T08:15:00;83.3;;;21.5;;
61570;SDS011;47463;49.884;10.010;2023-12-07T08:20:00;83.3;;;21.5;;
61570;SDS011;47463;49.884;10.010;2023-12-07T08:25:00;63.1;;;19.2;;
61570;SDS011;47463;49.884;10.010;2023-12-07T08:30:00;118;;;25;;
61570;SDS011;47463;49.884;10.010;2023-12-07T08:35:00;70;;;19.1;;
61570;SDS011;47463;49.884;10.010;2023-12-07T08:40:00;91.8;;;21.2;;
61570;SDS011;47463;49.884;10.010;2023-12-07T08:45:00;197.1;;;23.2;;
61570;SDS011;47463;49.884;10.010;2023-12-07T08:50:00;197.1;;;23.2;;
61570;SDS011;47463;49.884;10.010;2023-12-07T08:55:00;114.4;;;20.3;;
61570;SDS011;47463;49.884;10.010;2023-12-07T09:00:00;127.4;;;20;;
61570;SDS011;47463;49.884;10.010;2023-12-07T09:05:00;91.4;;;17.9;;
61570;SDS011;47463;49.884;10.010;2023-12-07T09:10:00;79.6;;;18.1;;
61570;SDS011;47463;49.884;10.010;2023-12-07T09:15:00;102.1;;;17.1;;
61570;SDS011;47463;49.884;10.010;2023-12-07T09:20:00;102.1;;;17.1;;
61570;SDS011;47463;49.884;10.010;2023-12-07T09:25:00;75.6;;;16.6;;
61570;SDS011;47463;49.884;10.010;2023-12-07T09:30:00;139.4;;;20.1;;
61570;SDS011;47463;49.884;10.010;2023-12-07T09:35:00;82.8;;;18;;
61570;SDS011;47463;49.884;10.010;2023-12-07T09:40:00;49.6;;;16.5;;
61570;SDS011;47463;49.884;10.010;2023-12-07T09:45:00;71.2;;;17.5;;
61570;SDS011;47463;49.884;10.010;2023-12-07T09:50:00;71.2;;;17.5;;
61570;SDS011;47463;49.884;10.010;2023-12-07T09:55:00;80.6;;;21.2;;
61570;SDS011;47463;49.884;10.010;2023-12-07T10:00:00;228.2;;;25.6;;
61570;SDS011;47463;49.884;10.010;2023-12-07T10:05:03;108.8;;;25;;
61570;SDS011;47463;49.884;10.010;2023-12-07T10:10:00;116.8;;;24;;
61570;SDS011;47463;49.884;10.010;2023-12-07T10:15:00;102.6;;;19.1;;
61570;SDS011;47463;49.884;10.010;2023-12-07T10:20:07;102.6;;;19.1;;
61570;SDS011;47463;49.884;10.010;2023-12-07T10:25:00;116.5;;;20.6;;
61570;SDS011;47463;49.884;10.010;2023-12-07T10:30:00;142.9;;;19.1;;
61570;SDS011;47463;49.884;10.010;2023-12-07T10:35:00;92.9;;;17.3;;
61570;SDS011;47463;49.884;10.010;2023-12-07T10:40:00;100.1;;;17.8;;
61570;SDS011;47463;49.884;10.010;2023-12-07T10:45:01;60.5;;;16.5;;
61570;SDS011;47463;49.884;10.010;2023-12-07T10:50:00;60.5;;;16.5;;
61570;SDS011;47463;49.884;10.010;2023-12-07T10:55:01;83.4;;;15.7;;
61570;SDS011;47463;49.884;10.010;2023-12-07T11:00:00;63.6;;;17.1;;
61570;SDS011;47463;49.884;10.010;2023-12-07T11:05:00;86.2;;;19.2;;
61570;SDS011;47463;49.884;10.010;2023-12-07T11:10:07;78.7;;;17.6;;
61570;SDS011;47463;49.884;10.010;2023-12-07T11:15:00;62.6;;;16.8;;
61570;SDS011;47463;49.884;10.010;2023-12-07T11:20:00;62.6;;;16.8;;
61570;SDS011;47463;49.884;10.010;2023-12-07T11:25:00;64;;;16.8;;
61570;SDS011;47463;49.884;10.010;2023-12-07T11:30:00;78;;;18.7;;
61570;SDS011;47463;49.884;10.010;2023-12-07T11:35:02;85;;;17.4;;
61570;SDS011;47463;49.884;10.010;2023-12-07T11:40:00;62;;;18.2;;
61570;SDS011;47463;49.884;10.010;2023-12-07T11:45:00;110.5;;;17.5;;
61570;SDS011;47463;49.884;10.010;2023-12-07T11:50:01;110.5;;;17.5;;
61570;SDS011;47463;49.884;10.010;2023-12-07T11:55:00;58.5;;;15.9;;
61570;SDS011;47463;49.884;10.010;2023-12-07T12:00:00;58.7;;;17.6;;
61570;SDS011;47463;49.884;10.010;2023-12-07T12:05:00;50.2;;;16.1;;
61570;SDS011;47463;49.884;10.010;2023-12-07T12:10:01;45.9;;;16.9;;
61570;SDS011;47463;49.884;10.010;2023-12-07T12:15:00;51.5;;;16.9;;
61570;SDS011;47463;49.884;10.010;2023-12-07T12:20:00;51.5;;;16.9;;
61570;SDS011;47463;49.884;10.010;2023-12-07T12:25:00;61;;;18.5;;
61570;SDS011;47463;49.884;10.010;2023-12-07T12:30:00;57.6;;;20.1;;
61570;SDS011;47463;49.884;10.010;2023-12-07T12:35:00;75.3;;;21.3;;
61570;SDS011;47463;49.884;10.010;2023-12-07T12:40:04;88.7;;;22.2;;
61570;SDS011;47463;49.884;10.010;2023-12-07T12:45:00;102.2;;;24.4;;
61570;SDS011;47463;49.884;10.010;2023-12-07T12:50:00;102.2;;;24.4;;
61570;SDS011;47463;49.884;10.010;2023-12-07T12:55:00;67.2;;;23;;
61570;SDS011;47463;49.884;10.010;2023-12-07T13:00:00;70.2;;;23;;
61570;SDS011;47463;49.884;10.010;2023-12-07T13:05:00;76.4;;;23.7;;
61570;SDS011;47463;49.884;10.010;2023-12-07T13:10:00;78.5;;;25.1;;
61570;SDS011;47463;49.884;10.010;2023-12-07T13:15:00;82.4;;;24.6;;
61570;SDS011;47463;49.884;10.010;2023-12-07T13:20:00;82.4;;;24.6;;
61570;SDS011;47463;49.884;10.010;2023-12-07T13:25:00;58.2;;;20.1;;
61570;SDS011;47463;49.884;10.010;2023-12-07T13:30:00;58.4;;;21.7;;
61570;SDS011;47463;49.884;10.010;2023-12-07T13:35:00;83.4;;;23.3;;
61570;SDS011;47463;49.884;10.010;2023-12-07T13:40:00;71.1;;;24;;
61570;SDS011;47463;49.884;10.010;2023-12-07T13:45:00;73.9;;;24.7;;
61570;SDS011;47463;49.884;10.010;2023-12-07T13:50:00;73.9;;;24.7;;
61570;SDS011;47463;49.884;10.010;2023-12-07T13:55:00;81.4;;;24.6;;
61570;SDS011;47463;49.884;10.010;2023-12-07T14:00:00;93.8;;;25.9;;
61570;SDS011;47463;49.884;10.010;2023-12-07T14:05:00;94.4;;;28;;
61570;SDS011;47463;49.884;10.010;2023-12-07T14:10:00;95.1;;;27.7;;
61570;SDS011;47463;49.884;10.010;2023-12-07T14:15:00;102.2;;;28.5;;
61570;SDS011;47463;49.884;10.010;2023-12-07T14:20:00;102.2;;;28.5;;
61570;SDS011;47463;49.884;10.010;2023-12-07T14:25:00;75;;;25.5;;
61570;SDS011;47463;49.884;10.010;2023-12-07T14:30:00;83.8;;;25.7;;
61570;SDS011;47463;49.884;10.010;2023-12-07T14:35:00;76.7;;;24.6;;
61570;SDS011;47463;49.884;10.010;2023-12-07T14:40:00;80.3;;;24.3;;
61570;SDS011;47463;49.884;10.010;2023-12-07T14:45:00;76.6;;;25.1;;
61570;SDS011;47463;49.884;10.010;2023-12-07T14:50:00;76.6;;;25.1;;
61570;SDS011;47463;49.884;10.010;2023-12-07T14:55:00;64.2;;;21.9;;
61570;SDS011;47463;49.884;10.010;2023-12-07T15:00:00;78;;;25.3;;
61570;SDS011;47463;49.884;10.010;2023-12-07T15:05:00;82.1;;;24.8;;
61570;SDS011;47463;49.884;10.010;2023-12-07T15:10:00;74.4;;;25.1;;
61570;SDS011;47463;49.884;10.010;2023-12-07T15:15:00;66.5;;;22.5;;
61570;SDS011;47463;49.884;10.010;2023-12-07T15:20:00;66.5;;;22.5;;
61570;SDS011;47463;49.884;10.010;2023-12-07T15:25:00;61.4;;;22.5;;
61570;SDS011;47463;49.884;10.010;2023-12-07T15:30:00;71.1;;;23.5;;
61570;SDS011;47463;49.884;10.010;2023-12-07T15:35:00;74.9;;;23.6;;
61570;SDS011;47463;49.884;10.010;2023-12-07T15:40:00;78.5;;;26.1;;
61570;SDS011;47463;49.884;10.010;2023-12-07T15:45:00;80;;;25.7;;
61570;SDS011;47463;49.884;10.010;2023-12-07T15:50:00;80;;;25.7;;
61570;SDS011;47463;49.884;10.010;2023-12-07T15:55:00;86.4;;;27.2;;
61570;SDS011;47463;49.884;10.010;2023-12-07T16:00:00;78.9;;;25.4;;
61570;SDS011;47463;49.884;10.010;2023-12-07T16:05:00;79.9;;;26.2;;
61570;SDS011;47463;49.884;10.010;2023-12-07T16:10:00;73;;;24.1;;
61570;SDS011;47463;49.884;10.010;2023-12-07T16:15:00;103.4;;;25.5;;
61570;SDS011;47463;49.884;10.010;2023-12-07T16:20:00;103.4;;;25.5;;
61570;SDS011;47463;49.884;10.010;2023-12-07T16:25:00;205.7;;;30.6;;
61570;SDS011;47463;49.884;10.010;2023-12-07T16:30:00;117.3;;;24.2;;
61570;SDS011;47463;49.884;10.010;2023-12-07T16:35:00;111.9;;;25.8;;
61570;SDS011;47463;49.884;10.010;2023-12-07T16:40:00;112.8;;;27.9;;
61570;SDS011;47463;49.884;10.010;2023-12-07T16:45:00;116.6;;;28.7;;
61570;SDS011;47463;49.884;10.010;2023-12-07T16:50:00;116.6;;;28.7;;
61570;SDS011;47463;49.884;10.010;2023-12-07T16:55:00;166.1;;;28.5;;
61570;SDS011;47463;49.884;10.010;2023-12-07T17:00:00;133.9;;;31.2;;
61570;SDS011;47463;49.884;10.010;2023-12-07T17:05:00;148.2;;;29.8;;
61570;SDS011;47463;49.884;10.010;2023-12-07T17:10:00;192.7;;;27.7;;
61570;SDS011;47463;49.884;10.010;2023-12-07T17:15:00;140.9;;;30.2;;
61570;SDS011;47463;49.884;10.010;2023-12-07T17:20:00;140.9;;;30.2;;
61570;SDS011;47463;49.884;10.010;2023-12-07T17:25:00;163.4;;;28.5;;
61570;SDS011;47463;49.884;10.010;2023-12-07T17:30:00;137.5;;;28.9;;
61570;SDS011;47463;49.884;10.010;2023-12-07T17:35:00;144.6;;;30.6;;
61570;SDS011;47463;49.884;10.010;2023-12-07T17:40:00;135.9;;;30.5;;
61570;SDS011;47463;49.884;10.010;2023-12-07T17:45:00;149.6;;;31.6;;
61570;SDS011;47463;49.884;10.010;2023-12-07T17:50:00;149.6;;;31.6;;
61570;SDS011;47463;49.884;10.010;2023-12-07T17:55:00;129.6;;;27.4;;
61570;SDS011;47463;49.884;10.010;2023-12-07T18:00:00;115.9;;;29.1;;
61570;SDS011;47463;49.884;10.010;2023-12-07T18:05:00;127.2;;;29.1;;
61570;SDS011;47463;49.884;10.010;2023-12-07T18:10:00;140.4;;;29.3;;
61570;SDS011;47463;49.884;10.010;2023-12-07T18:15:00;137.7;;;29.5;;
61570;SDS011;47463;49.884;10.010;2023-12-07T18:20:00;137.7;;;29.5;;
61570;SDS011;47463;49.884;10.010;2023-12-07T18:25:00;97.1;;;27.8;;
61570;SDS011;47463;49.884;10.010;2023-12-07T18:30:00;198;;;31.5;;
61570;SDS011;47463;49.884;10.010;2023-12-07T18:35:00;93.9;;;26;;
61570;SDS011;47463;49.884;10.010;2023-12-07T18:40:00;101.9;;;25.6;;
61570;SDS011;47463;49.884;10.010;2023-12-07T18:45:00;126.7;;;25.7;;
61570;SDS011;47463;49.884;10.010;2023-12-07T18:50:00;126.7;;;25.7;;
61570;SDS011;47463;49.884;10.010;2023-12-07T18:55:00;96.4;;;24.4;;
61570;SDS011;47463;49.884;10.010;2023-12-07T19:00:00;114.3;;;25;;
61570;SDS011;47463;49.884;10.010;2023-12-07T19:05:00;176.3;;;30.6;;
61570;SDS011;47463;49.884;10.010;2023-12-07T19:10:00;222.8;;;30.9;;
61570;SDS011;47463;49.884;10.010;2023-12-07T19:15:00;114.5;;;25.9;;
61570;SDS011;47463;49.884;10.010;2023-12-07T19:20:00;114.5;;;25.9;;
61570;SDS011;47463;49.884;10.010;2023-12-07T19:25:00;112.3;;;27.2;;
61570;SDS011;47463;49.884;10.010;2023-12-07T19:30:00;91.6;;;23.5;;
61570;SDS011;47463;49.884;10.010;2023-12-07T19:35:00;70.9;;;22.1;;
61570;SDS011;47463;49.884;10.010;2023-12-07T19:40:00;73.3;;;24;;
61570;SDS011;47463;49.884;10.010;2023-12-07T19:45:00;59.8;;;22;;
61570;SDS011;47463;49.884;10.010;2023-12-07T19:50:00;59.8;;;22;;
61570;SDS011;47463;49.884;10.010;2023-12-07T19:55:00;64.3;;;23.3;;
61570;SDS011;47463;49.884;10.010;2023-12-07T20:00:00;59.4;;;23;;
61570;SDS011;47463;49.884;10.010;2023-12-07T20:05:00;66;;;23.7;;
61570;SDS011;47463;49.884;10.010;2023-12-07T20:10:00;66;;;23.9;;
61570;SDS011;47463;49.884;10.010;2023-12-07T20:15:00;64.3;;;23.6;;
61570;SDS011;47463;49.884;10.010;2023-12-07T20:20:00;64.3;;;23.6;;
61570;SDS011;47463;49.884;10.010;2023-12-07T20:25:00;56.6;;;22;;
61570;SDS011;47463;49.884;10.010;2023-12-07T20:30:00;64.8;;;23.4;;
61570;SDS011;47463;49.884;10.010;2023-12-07T20:35:00;74;;;28.1;;
61570;SDS011;47463;49.884;10.010;2023-12-07T20:40:00;60.3;;;24.5;;
61570;SDS011;47463;49.884;10.010;2023-12-07T20:45:00;65.8;;;24.8;;
61570;SDS011;47463;49.884;10.010;2023-12-07T20:50:00;65.8;;;24.8;;
61570;SDS011;47463;49.884;10.010;2023-12-07T20:55:00;64.2;;;25.3;;
61570;SDS011;47463;49.884;10.010;2023-12-07T21:00:00;57.2;;;22.1;;
61570;SDS011;47463;49.884;10.010;2023-12-07T21:05:00;59.4;;;22.7;;
61570;SDS011;47463;49.884;10.010;2023-12-07T21:10:00;58.2;;;23.3;;
61570;SDS011;47463;49.884;10.010;2023-12-07T21:15:00;55.1;;;23.6;;
61570;SDS011;47463;49.884;10.010;2023-12-07T21:20:00;55.1;;;23.6;;
61570;SDS011;47463;49.884;10.010;2023-12-07T21:25:00;62.7;;;26.4;;
61570;SDS011;47463;49.884;10.010;2023-12-07T21:30:00;62.2;;;25.4;;
61570;SDS011;47463;49.884;10.010;2023-12-07T21:35:00;54.7;;;23.9;;
61570;SDS011;47463;49.884;10.010;2023-12-07T21:40:00;51.6;;;22.2;;
61570;SDS011;47463;49.884;10.010;2023-12-07T21:45:00;53.2;;;22.7;;
61570;SDS011;47463;49.884;10.010;2023-12-07T21:50:00;53.2;;;22.7;;
61570;SDS011;47463;49.884;10.010;2023-12-07T21:55:00;57.3;;;24;;
61570;SDS011;47463;49.884;10.010;2023-12-07T22:00:00;56.8;;;23.8;;
61570;SDS011;47463;49.884;10.010;2023-12-07T22:05:00;51.3;;;23.6;;
61570;SDS011;47463;49.884;10.010;2023-12-07T22:10:00;57.6;;;23;;
61570;SDS011;47463;49.884;10.010;2023-12-07T22:15:00;57.4;;;24.3;;
61570;SDS011;47463;49.884;10.010;2023-12-07T22:20:00;57.4;;;24.3;;
61570;SDS011;47463;49.884;10.010;2023-12-07T22:25:00;57.4;;;24.1;;
61570;SDS011;47463;49.884;10.010;2023-12-07T22:30:00;58.1;;;24.3;;
61570;SDS011;47463;49.884;10.010;2023-12-07T22:35:00;53.3;;;22.9;;
61570;SDS011;47463;49.884;10.010;2023-12-07T22:40:00;54.5;;;23.9;;
61570;SDS011;47463;49.884;10.010;2023-12-07T22:45:00;55.8;;;22.9;;
61570;SDS011;47463;49.884;10.010;2023-12-07T22:50:00;55.8;;;22.9;;
61570;SDS011;47463;49.884;10.010;2023-12-07T22:55:00;57.8;;;24.9;;
61570;SDS011;47463;49.884;10.010;2023-12-07T23:00:00;54.3;;;23.3;;
61570;SDS011;47463;49.884;10.010;2023-12-07T23:05:00;51.6;;;22.4;;
61570;SDS011;47463;49.884;10.010;2023-12-07T23:10:00;53.6;;;23.1;;
61570;SDS011;47463;49.884;10.010;2023-12-07T23:15:00;58.5;;;22.9;;
61570;SDS011;47463;49.884;10.010;2023-12-07T23:20:00;58.5;;;22.9;;
61570;SDS011;47463;49.884;10.010;2023-12-07T23:25:00;52.1;;;23.5;;
61570;SDS011;47463;49.884;10.010;2023-12-07T23:30:00;61.9;;;24.9;;
61570;SDS011;47463;49.884;10.010;2023-12-07T23:35:00;54.9;;;23.9;;
61570;SDS011;47463;49.884;10.010;2023-12-07T23:40:00;54.9;;;24.1;;
61570;SDS011;47463;49.884;10.010;2023-12-07T23:45:00;59.5;;;24.3;;
61570;SDS011;47463;49.884;10.010;2023-12-07T23:50:00;59.5;;;24.3;;
61570;SDS011;47463;49.884;10.010;2023-12-07T23:55:00;59.6;;;25.4;;
